地図

経路データ

SID SEASON NUMBER BASIN SUBBASIN NAME ISO_TIME NATURE LAT LON WMO_WIND WMO_PRES WMO_AGENCY TRACK_TYPE DIST2LAND LANDFALL IFLAG USA_AGENCY USA_ATCF_ID USA_LAT USA_LON USA_RECORD USA_STATUS USA_WIND USA_PRES USA_SSHS USA_R34_NE USA_R34_SE USA_R34_SW USA_R34_NW USA_R50_NE USA_R50_SE USA_R50_SW USA_R50_NW USA_R64_NE USA_R64_SE USA_R64_SW USA_R64_NW USA_POCI USA_ROCI USA_RMW USA_EYE TOKYO_LAT TOKYO_LON TOKYO_GRADE TOKYO_WIND TOKYO_PRES TOKYO_R50_DIR TOKYO_R50_LONG TOKYO_R50_SHORT TOKYO_R30_DIR TOKYO_R30_LONG TOKYO_R30_SHORT TOKYO_LAND CMA_LAT CMA_LON CMA_CAT CMA_WIND CMA_PRES HKO_LAT HKO_LON HKO_CAT HKO_WIND HKO_PRES NEWDELHI_LAT NEWDELHI_LON NEWDELHI_GRADE NEWDELHI_WIND NEWDELHI_PRES NEWDELHI_CI NEWDELHI_DP NEWDELHI_POCI REUNION_LAT REUNION_LON REUNION_TYPE REUNION_WIND REUNION_PRES REUNION_TNUM REUNION_CI REUNION_RMW REUNION_R34_NE REUNION_R34_SE REUNION_R34_SW REUNION_R34_NW REUNION_R50_NE REUNION_R50_SE REUNION_R50_SW REUNION_R50_NW REUNION_R64_NE REUNION_R64_SE REUNION_R64_SW REUNION_R64_NW BOM_LAT BOM_LON BOM_TYPE BOM_WIND BOM_PRES BOM_TNUM BOM_CI BOM_RMW BOM_R34_NE BOM_R34_SE BOM_R34_SW BOM_R34_NW BOM_R50_NE BOM_R50_SE BOM_R50_SW BOM_R50_NW BOM_R64_NE BOM_R64_SE BOM_R64_SW BOM_R64_NW BOM_ROCI BOM_POCI BOM_EYE BOM_POS_METHOD BOM_PRES_METHOD NADI_LAT NADI_LON NADI_CAT NADI_WIND NADI_PRES WELLINGTON_LAT WELLINGTON_LON WELLINGTON_WIND WELLINGTON_PRES DS824_LAT DS824_LON DS824_STAGE DS824_WIND DS824_PRES TD9636_LAT TD9636_LON TD9636_STAGE TD9636_WIND TD9636_PRES TD9635_LAT TD9635_LON TD9635_WIND TD9635_PRES TD9635_ROCI NEUMANN_LAT NEUMANN_LON NEUMANN_CLASS NEUMANN_WIND NEUMANN_PRES MLC_LAT MLC_LON MLC_CLASS MLC_WIND MLC_PRES USA_GUST BOM_GUST BOM_GUST_PER REUNION_GUST REUNION_GUST_PER USA_SEAHGT USA_SEARAD_NE USA_SEARAD_SE USA_SEARAD_SW USA_SEARAD_NW STORM_SPEED STORM_DIR
1861254N19314 1861 22 NA NA NOT_NAMED 1861-09-11 00:00:00 TS 19.0000 -46.3000 main 1688 1688 _____________O -1 19.0000 -46.3000 TD 30 8 326
1861254N19314 1861 22 NA NA NOT_NAMED 1861-09-11 03:00:00 TS 19.3501 -46.5498 main 1720 1715 _____________P -1 19.3501 -46.5498 TD 30 8 326
1861254N19314 1861 22 NA NA NOT_NAMED 1861-09-11 06:00:00 TS 19.7000 -46.8000 main 1738 1738 _____________O -1 19.7000 -46.8000 TD 30 8 326
1861254N19314 1861 22 NA NA NOT_NAMED 1861-09-11 09:00:00 TS 20.0500 -47.0501 main 1755 1755 _____________P -1 20.0500 -47.0501 TD 32 8 326
1861254N19314 1861 22 NA NA NOT_NAMED 1861-09-11 12:00:00 TS 20.4000 -47.3000 main 1786 1786 _____________O -1 20.4000 -47.3000 TS 35 8 327
1861254N19314 1861 22 NA NA NOT_NAMED 1861-09-11 15:00:00 TS 20.7499 -47.5427 main 1807 1807 _____________P -1 20.7499 -47.5427 TS 35 8 326
1861254N19314 1861 22 NA NA NOT_NAMED 1861-09-11 18:00:00 TS 21.1000 -47.8000 main 1827 1824 _____________O -1 21.1000 -47.8000 TS 35 9 323
1861254N19314 1861 22 NA NA NOT_NAMED 1861-09-11 21:00:00 TS 21.4500 -48.1000 main 1831 1821 _____________P -1 21.4500 -48.1000 TS 35 9 321
1861254N19314 1861 22 NA NA NOT_NAMED 1861-09-12 00:00:00 TS 21.8000 -48.4000 main 1829 1817 _____________O -1 21.8000 -48.4000 TS 35 9 323
1861254N19314 1861 22 NA NA NOT_NAMED 1861-09-12 03:00:00 TS 22.1424 -48.6577 main 1809 1795 _____________P -1 22.1424 -48.6577 TS 35 8 327
1861254N19314 1861 22 NA NA NOT_NAMED 1861-09-12 06:00:00 TS 22.5000 -48.9000 main 1797 1782 _____________O -1 22.5000 -48.9000 TS 35 9 329
1861254N19314 1861 22 NA NA NOT_NAMED 1861-09-12 09:00:00 TS 22.9000 -49.1501 main 1777 1765 _____________P -1 22.9000 -49.1501 TS 37 9 330
1861254N19314 1861 22 NA NA NOT_NAMED 1861-09-12 12:00:00 TS 23.3000 -49.4000 main 1768 1754 _____________O -1 23.3000 -49.4000 TS 40 9 329
1861254N19314 1861 22 NA NA NOT_NAMED 1861-09-12 15:00:00 TS 23.6424 -49.6428 main 1758 1738 _____________P -1 23.6424 -49.6428 TS 40 8 327
1861254N19314 1861 22 NA NA NOT_NAMED 1861-09-12 18:00:00 TS 24.0000 -49.9000 main 1742 1727 _____________O -1 24.0000 -49.9000 TS 40 9 327
1861254N19314 1861 22 NA NA NOT_NAMED 1861-09-12 21:00:00 TS 24.4350 -50.2000 main 1727 1715 _____________P -1 24.4350 -50.2000 TS 40 11 329
1861254N19314 1861 22 NA NA NOT_NAMED 1861-09-13 00:00:00 TS 24.9000 -50.5000 main 1719 1713 _____________O -1 24.9000 -50.5000 TS 40 10 331
1861254N19314 1861 22 NA NA NOT_NAMED 1861-09-13 03:00:00 TS 25.3499 -50.7578 main 1709 1709 _____________P -1 25.3499 -50.7578 TS 40 10 333
1861254N19314 1861 22 NA NA NOT_NAMED 1861-09-13 06:00:00 TS 25.8000 -51.0000 main 1714 1710 _____________O -1 25.8000 -51.0000 TS 40 10 334
1861254N19314 1861 22 NA NA NOT_NAMED 1861-09-13 09:00:00 TS 26.2500 -51.2502 main 1707 1707 _____________P -1 26.2500 -51.2502 TS 42 10 334
1861254N19314 1861 22 NA NA NOT_NAMED 1861-09-13 12:00:00 TS 26.7000 -51.5000 main 1717 1714 _____________O -1 26.7000 -51.5000 TS 45 10 334
1861254N19314 1861 22 NA NA NOT_NAMED 1861-09-13 15:00:00 TS 27.1499 -51.7428 main 1722 1720 _____________P -1 27.1499 -51.7428 TS 45 10 334
1861254N19314 1861 22 NA NA NOT_NAMED 1861-09-13 18:00:00 TS 27.6000 -52.0000 main 1727 1724 _____________O -1 27.6000 -52.0000 TS 45 10 331
1861254N19314 1861 22 NA NA NOT_NAMED 1861-09-13 21:00:00 TS 28.0425 -52.2927 main 1728 1727 _____________P -1 28.0425 -52.2927 TS 45 10 330
1861254N19314 1861 22 NA NA NOT_NAMED 1861-09-14 00:00:00 TS 28.5000 -52.6000 main 1738 1737 _____________O -1 28.5000 -52.6000 TS 45 11 331
1861254N19314 1861 22 NA NA NOT_NAMED 1861-09-14 03:00:00 TS 28.9999 -52.9002 main 1750 1750 _____________P -1 28.9999 -52.9002 TS 45 11 332
1861254N19314 1861 22 NA NA NOT_NAMED 1861-09-14 06:00:00 TS 29.5000 -53.2000 main 1765 1765 _____________O -1 29.5000 -53.2000 TS 45 11 331
1861254N19314 1861 22 NA NA NOT_NAMED 1861-09-14 09:00:00 TS 29.9575 -53.5077 main 1781 1766 _____________P -1 29.9575 -53.5077 TS 50 10 330
1861254N19314 1861 22 NA NA NOT_NAMED 1861-09-14 12:00:00 TS 30.4000 -53.8000 main 1766 1717 _____________O -1 30.4000 -53.8000 TS 55 10 332
1861254N19314 1861 22 NA NA NOT_NAMED 1861-09-14 15:00:00 TS 30.8574 -54.0578 main 1703 1655 _____________P -1 30.8574 -54.0578 TS 55 10 335
1861254N19314 1861 22 NA NA NOT_NAMED 1861-09-14 18:00:00 TS 31.3000 -54.3000 main 1655 1607 _____________O -1 31.3000 -54.3000 TS 55 10 333
1861254N19314 1861 22 NA NA NOT_NAMED 1861-09-14 21:00:00 TS 31.7150 -54.5576 main 1604 1555 _____________P -1 31.7150 -54.5576 TS 55 9 332
1861254N19314 1861 22 NA NA NOT_NAMED 1861-09-15 00:00:00 TS 32.1000 -54.8000 main 1555 1518 _____________O -1 32.1000 -54.8000 TS 55 8 333
1861254N19314 1861 22 NA NA NOT_NAMED 1861-09-15 03:00:00 TS 32.4499 -55.0004 main 1518 1469 _____________P -1 32.4499 -55.0004 TS 55 8 334
1861254N19314 1861 22 NA NA NOT_NAMED 1861-09-15 06:00:00 TS 32.8000 -55.2000 main 1469 1421 _____________O -1 32.8000 -55.2000 TS 55 8 333
1861254N19314 1861 22 NA NA NOT_NAMED 1861-09-15 09:00:00 TS 33.2000 -55.4499 main 1421 1370 _____________P -1 33.2000 -55.4499 TS 57 9 332
1861254N19314 1861 22 NA NA NOT_NAMED 1861-09-15 12:00:00 TS 33.6000 -55.7000 main 1370 1336 _____________O -1 33.6000 -55.7000 TS 60 8 336
1861254N19314 1861 22 NA NA NOT_NAMED 1861-09-15 15:00:00 TS 33.8816 -55.8207 main 1336 1285 _____________P -1 33.8816 -55.8207 TS 62 8 335
1861254N19314 1861 22 NA NA NOT_NAMED 1861-09-15 18:00:00 TS 34.3000 -56.1000 main 1285 1191 _____________O -1 34.3000 -56.1000 HU 65 15 324
1861254N19314 1861 22 NA NA NOT_NAMED 1861-09-15 21:00:00 TS 35.0846 -56.8876 main 1178 1055 _____________P -1 35.0846 -56.8876 HU 65 21 322
1861254N19314 1861 22 NA NA NOT_NAMED 1861-09-16 00:00:00 TS 36.0000 -57.7000 main 1055 962 _____________O -1 36.0000 -57.7000 HU 65 20 330
1861254N19314 1861 22 NA NA NOT_NAMED 1861-09-16 03:00:00 TS 36.8289 -58.1303 main 962 877 _____________P -1 36.8289 -58.1303 HU 65 17 346
1861254N19314 1861 22 NA NA NOT_NAMED 1861-09-16 06:00:00 TS 37.6000 -58.2000 main 877 817 _____________O -1 37.6000 -58.2000 HU 65 14 4
1861254N19314 1861 22 NA NA NOT_NAMED 1861-09-16 09:00:00 TS 38.2706 -58.0161 main 809 763 _____________P -1 38.2706 -58.0161 HU 67 14 26
1861254N19314 1861 22 NA NA NOT_NAMED 1861-09-16 12:00:00 TS 38.9000 -57.4000 main 763 732 _____________O -1 38.9000 -57.4000 HU 70 18 44
1861254N19314 1861 22 NA NA NOT_NAMED 1861-09-16 15:00:00 TS 39.5630 -56.4165 main 731 721 _____________P -1 39.5630 -56.4165 HU 70 23 55
1861254N19314 1861 22 NA NA NOT_NAMED 1861-09-16 18:00:00 TS 40.2000 -55.0000 main 720 644 _____________O -1 40.2000 -55.0000 HU 70 27 63
1861254N19314 1861 22 NA NA NOT_NAMED 1861-09-16 21:00:00 TS 40.7887 -53.2476 main 644 606 _____________P -1 40.7887 -53.2476 HU 70 30 69
1861254N19314 1861 22 NA NA NOT_NAMED 1861-09-17 00:00:00 TS 41.3000 -51.3000 main 608 600 _____________O -1 41.3000 -51.3000 HU 70 30 72
1861254N19314 1861 22 NA NA NOT_NAMED 1861-09-17 03:00:00 TS 41.7426 -49.4331 main 622 616 _____________P -1 41.7426 -49.4331 HU 70 29 74
1861254N19314 1861 22 NA NA NOT_NAMED 1861-09-17 06:00:00 TS 42.1000 -47.6000 main 668 668 _____________O -1 42.1000 -47.6000 HU 70 27 77
1861254N19314 1861 22 NA NA NOT_NAMED 1861-09-17 09:00:00 TS 42.3766 -45.8322 main 747 747 _____________P -1 42.3766 -45.8322 HU 67 26 79
1861254N19314 1861 22 NA NA NOT_NAMED 1861-09-17 12:00:00 TS 42.6000 -44.1000 main 841 841 _____________O -1 42.6000 -44.1000 HU 65 26 83
1861254N19314 1861 22 NA NA NOT_NAMED 1861-09-17 15:00:00 TS 42.7001 -42.3392 main 955 955 _____________P -1 42.7001 -42.3392 HU 65 26 81
1861254N19314 1861 22 NA NA NOT_NAMED 1861-09-17 18:00:00 TS 43.0000 -40.6000 main 1059 1059 _____________O -1 43.0000 -40.6000 HU 65 28 67
1861254N19314 1861 22 NA NA NOT_NAMED 1861-09-17 21:00:00 TS 43.8001 -38.8543 main 1135 1135 _____________P -1 43.8001 -38.8543 HU 62 31 55
1861254N19314 1861 22 NA NA NOT_NAMED 1861-09-18 00:00:00 ET 44.8000 -37.1000 main 1224 1224 _____________O -1 44.8000 -37.1000 EX 60 31 53
1861254N19314 1861 22 NA NA NOT_NAMED 1861-09-18 03:00:00 ET 45.6473 -35.3434 main 1331 1331 _____________P -1 45.6473 -35.3434 EX 60 30 55
1861254N19314 1861 22 NA NA NOT_NAMED 1861-09-18 06:00:00 ET 46.5000 -33.6000 main 1435 1435 _____________O -1 46.5000 -33.6000 EX 60 30 54
1861254N19314 1861 22 NA NA NOT_NAMED 1861-09-18 09:00:00 ET 47.3927 -31.8632 main 1545 1457 _____________P -1 47.3927 -31.8632 EX 55 30 53
1861254N19314 1861 22 NA NA NOT_NAMED 1861-09-18 12:00:00 ET 48.3000 -30.1000 main 1445 _____________O -1 48.3000 -30.1000 EX 50 30 52

IBTrACS Databaseについて

本データベースは、米国NOAAが公開する1842年以降の世界の熱帯低気圧のベストトラックデータアーカイブInternational Best Track Archive for Climate Stewardship (IBTrACS)を、ウェブで閲覧しやすい形式に変換したものです。

最終更新日:2021-10-19